createdAt,value
2023-03-02T00:01:10.779Z,11.60
2023-03-02T00:03:39.721Z,11.25
2023-03-02T00:06:07.289Z,11.25
2023-03-02T00:08:34.829Z,12.45
2023-03-02T00:11:01.910Z,12.13
2023-03-02T00:13:32.579Z,11.77
2023-03-02T00:15:59.286Z,11.48
2023-03-02T00:18:25.932Z,11.57
2023-03-02T00:20:52.521Z,12.52
2023-03-02T00:23:19.218Z,12.23
2023-03-02T00:25:45.909Z,11.90
2023-03-02T00:28:12.518Z,12.35
2023-03-02T00:30:39.431Z,11.75
2023-03-02T00:33:06.030Z,12.55
2023-03-02T00:35:37.659Z,11.77
2023-03-02T00:38:04.481Z,11.63
2023-03-02T00:40:31.089Z,12.15
2023-03-02T00:42:57.678Z,12.50
2023-03-02T00:45:24.287Z,11.90
2023-03-02T00:47:50.865Z,12.20
2023-03-02T00:50:17.720Z,12.77
2023-03-02T00:52:44.285Z,12.43
2023-03-02T00:55:10.932Z,12.30
2023-03-02T00:57:38.201Z,12.10
2023-03-02T01:00:05.698Z,12.35
2023-03-02T01:02:44.315Z,12.48
2023-03-02T01:05:14.594Z,12.48
2023-03-02T01:07:41.174Z,11.90
2023-03-02T01:10:08.892Z,11.95
2023-03-02T01:12:35.834Z,12.05
2023-03-02T01:15:03.041Z,12.32
2023-03-02T01:17:29.660Z,12.23
2023-03-02T01:19:57.075Z,12.00
2023-03-02T01:22:23.993Z,11.98
2023-03-02T01:24:50.530Z,11.85
2023-03-02T01:27:17.241Z,12.40
2023-03-02T01:29:43.805Z,12.45
2023-03-02T01:32:10.633Z,12.52
2023-03-02T01:34:37.859Z,12.18
2023-03-02T01:37:06.107Z,12.55
2023-03-02T01:39:32.794Z,12.48
2023-03-02T01:41:59.374Z,12.45
2023-03-02T01:44:46.433Z,12.27
2023-03-02T01:47:23.424Z,12.18
2023-03-02T01:50:06.580Z,11.85
2023-03-02T01:52:38.362Z,12.38
2023-03-02T01:55:08.333Z,12.25
2023-03-02T01:57:43.484Z,11.90
2023-03-02T02:00:19.462Z,13.05
2023-03-02T02:02:47.716Z,12.13
2023-03-02T02:05:19.946Z,12.57
2023-03-02T02:07:47.524Z,12.13
2023-03-02T02:10:15.328Z,13.00
2023-03-02T02:12:42.218Z,12.65
2023-03-02T02:15:09.513Z,12.25
2023-03-02T02:17:36.291Z,12.45
2023-03-02T02:20:16.415Z,12.25
2023-03-02T02:22:59.163Z,11.75
2023-03-02T02:25:55.314Z,12.40
2023-03-02T02:28:28.245Z,11.90
2023-03-02T02:31:18.814Z,11.82
2023-03-02T02:33:51.049Z,12.05
2023-03-02T02:36:21.677Z,12.10
2023-03-02T02:38:53.041Z,12.75
2023-03-02T02:41:24.861Z,12.02
2023-03-02T02:43:51.591Z,11.50
2023-03-02T02:46:18.347Z,11.70
2023-03-02T02:48:44.961Z,11.95
2023-03-02T02:51:18.733Z,11.45
2023-03-02T02:53:58.577Z,11.90
2023-03-02T02:56:35.371Z,11.75
2023-03-02T02:59:06.809Z,12.32
2023-03-02T03:01:34.096Z,12.10
2023-03-02T03:04:04.302Z,12.13
2023-03-02T03:06:42.305Z,11.65
2023-03-02T03:09:11.195Z,11.57
2023-03-02T03:11:47.056Z,11.38
2023-03-02T03:14:16.430Z,11.88
2023-03-02T03:16:46.536Z,11.70
2023-03-02T03:19:20.494Z,12.20
2023-03-02T03:21:49.446Z,12.10
2023-03-02T03:24:16.546Z,11.63
2023-03-02T03:26:43.470Z,11.35
2023-03-02T03:29:11.684Z,11.70
2023-03-02T03:31:38.734Z,12.63
2023-03-02T03:34:06.131Z,11.65
2023-03-02T03:36:36.218Z,12.50
2023-03-02T03:39:05.615Z,12.32
2023-03-02T03:41:32.770Z,12.70
2023-03-02T03:43:59.547Z,12.73
2023-03-02T03:46:28.326Z,12.48
2023-03-02T03:48:55.181Z,13.82
2023-03-02T03:51:22.286Z,13.68
2023-03-02T03:53:59.936Z,13.55
2023-03-02T03:56:35.034Z,13.60
2023-03-02T03:59:08.598Z,14.40
2023-03-02T04:01:53.309Z,13.05
2023-03-02T04:04:25.311Z,13.73
2023-03-02T04:06:52.697Z,13.52
2023-03-02T04:09:20.499Z,13.45
2023-03-02T04:11:49.648Z,12.70
2023-03-02T04:14:17.409Z,13.18
2023-03-02T04:16:45.017Z,13.07
2023-03-02T04:19:12.274Z,13.25
2023-03-02T04:21:45.033Z,12.75
2023-03-02T04:24:13.347Z,13.27
2023-03-02T04:26:41.347Z,13.32
2023-03-02T04:29:09.795Z,13.23
2023-03-02T04:31:39.017Z,12.95
2023-03-02T04:34:06.290Z,13.00
2023-03-02T04:36:36.834Z,13.32
2023-03-02T04:39:06.281Z,13.18
2023-03-02T04:41:33.117Z,13.45
2023-03-02T04:43:59.764Z,12.80
2023-03-02T04:46:27.624Z,13.35
2023-03-02T04:48:54.660Z,13.50
2023-03-02T04:51:31.383Z,13.52
2023-03-02T04:54:01.902Z,13.38
2023-03-02T04:56:28.962Z,13.75
2023-03-02T04:58:56.082Z,13.02
2023-03-02T05:01:23.648Z,12.82
2023-03-02T05:03:50.361Z,13.25
2023-03-02T05:06:17.250Z,12.60
2023-03-02T05:08:44.484Z,13.38
2023-03-02T05:11:22.288Z,13.27
2023-03-02T05:13:50.774Z,12.90
2023-03-02T05:16:18.255Z,13.00
2023-03-02T05:18:45.366Z,13.35
2023-03-02T05:21:12.285Z,13.13
2023-03-02T05:23:38.902Z,12.32
2023-03-02T05:26:05.636Z,12.95
2023-03-02T05:28:33.353Z,13.15
2023-03-02T05:31:00.430Z,12.43
2023-03-02T05:33:27.275Z,12.45
2023-03-02T05:35:54.005Z,12.75
2023-03-02T05:38:20.828Z,13.00
2023-03-02T05:40:48.166Z,13.43
2023-03-02T05:43:20.877Z,13.13
2023-03-02T05:45:47.692Z,13.27
2023-03-02T05:48:14.965Z,13.90
2023-03-02T05:50:41.817Z,13.02
2023-03-02T05:53:08.638Z,13.32
2023-03-02T05:55:38.081Z,13.15
2023-03-02T05:58:06.611Z,12.50
2023-03-02T06:00:33.234Z,13.07
2023-03-02T06:02:59.886Z,12.70
2023-03-02T06:05:26.531Z,13.45
2023-03-02T06:07:53.847Z,14.07
2023-03-02T06:10:20.632Z,13.57
2023-03-02T06:12:47.191Z,12.95
2023-03-02T06:15:13.774Z,13.75
2023-03-02T06:17:40.450Z,14.68
2023-03-02T06:20:10.984Z,14.77
2023-03-02T06:22:41.268Z,14.07
2023-03-02T06:25:13.754Z,13.48
2023-03-02T06:27:40.936Z,13.70
2023-03-02T06:30:09.032Z,13.05
2023-03-02T06:32:35.739Z,13.25
2023-03-02T06:35:03.447Z,14.38
2023-03-02T06:37:30.522Z,12.05
2023-03-02T06:39:57.752Z,13.02
2023-03-02T06:42:29.237Z,12.73
2023-03-02T06:44:55.862Z,12.77
2023-03-02T06:47:23.120Z,11.48
2023-03-02T06:49:49.872Z,12.20
2023-03-02T06:52:16.582Z,12.98
2023-03-02T06:54:43.356Z,12.07
2023-03-02T06:57:10.054Z,12.50
2023-03-02T06:59:36.632Z,11.98
2023-03-02T07:02:03.629Z,12.48
2023-03-02T07:04:30.180Z,12.45
2023-03-02T07:06:57.052Z,12.32
2023-03-02T07:09:23.890Z,12.48
2023-03-02T07:11:50.877Z,12.13
2023-03-02T07:14:17.484Z,12.40
2023-03-02T07:16:44.073Z,12.05
2023-03-02T07:19:13.601Z,12.07
2023-03-02T07:21:40.413Z,12.35
2023-03-02T07:24:07.502Z,13.07
2023-03-02T07:26:34.160Z,12.68
2023-03-02T07:29:01.011Z,12.77
2023-03-02T07:31:28.170Z,12.95
2023-03-02T07:33:54.933Z,12.55
2023-03-02T07:36:21.505Z,12.65
2023-03-02T07:38:48.825Z,12.35
2023-03-02T07:41:16.958Z,12.80
2023-03-02T07:43:43.990Z,12.57
2023-03-02T07:46:10.725Z,12.98
2023-03-02T07:48:37.433Z,12.93
2023-03-02T07:51:08.145Z,12.73
2023-03-02T07:53:35.367Z,13.07
2023-03-02T07:56:09.289Z,13.15
2023-03-02T07:58:36.047Z,13.18
2023-03-02T08:01:02.984Z,13.02
2023-03-02T08:03:29.613Z,13.05
2023-03-02T08:05:56.206Z,13.15
2023-03-02T08:08:22.777Z,13.15
2023-03-02T08:10:49.461Z,12.88
2023-03-02T08:13:16.084Z,13.40
2023-03-02T08:15:42.648Z,13.52
2023-03-02T08:18:09.267Z,13.35
2023-03-02T08:20:35.900Z,12.93
2023-03-02T08:23:02.543Z,14.13
2023-03-02T08:25:29.096Z,13.85
2023-03-02T08:27:55.701Z,15.20
2023-03-02T08:30:22.331Z,14.90
2023-03-02T08:32:48.988Z,15.10
2023-03-02T08:35:15.754Z,15.18
2023-03-02T08:37:42.320Z,14.73
2023-03-02T08:40:09.684Z,15.38
2023-03-02T08:42:36.348Z,14.65
2023-03-02T08:45:03.524Z,15.50
2023-03-02T08:47:30.259Z,16.00
2023-03-02T08:49:56.822Z,15.07
2023-03-02T08:52:23.428Z,15.00
2023-03-02T08:54:50.159Z,15.02
2023-03-02T08:57:16.788Z,15.77
2023-03-02T08:59:43.926Z,14.85
2023-03-02T09:02:12.196Z,15.05
2023-03-02T09:04:39.271Z,14.60
2023-03-02T09:07:05.928Z,15.00
2023-03-02T09:09:32.524Z,15.50
2023-03-02T09:11:59.117Z,16.10
2023-03-02T09:14:25.726Z,15.20
2023-03-02T09:16:52.917Z,15.35
2023-03-02T09:19:19.869Z,16.00
2023-03-02T09:21:46.599Z,14.55
2023-03-02T09:24:13.219Z,15.05
2023-03-02T09:26:39.799Z,14.50
2023-03-02T09:29:07.198Z,14.77
2023-03-02T09:31:35.135Z,14.65
2023-03-02T09:34:02.069Z,13.77
2023-03-02T09:36:28.715Z,15.05
2023-03-02T09:38:55.545Z,14.73
2023-03-02T09:41:49.161Z,14.77
2023-03-02T09:44:15.684Z,13.68
2023-03-02T09:47:00.339Z,13.82
2023-03-02T09:49:27.056Z,13.30
2023-03-02T09:52:02.966Z,13.38
2023-03-02T09:54:30.965Z,13.10
2023-03-02T09:56:58.795Z,12.82
2023-03-02T09:59:54.516Z,13.02
2023-03-02T10:02:26.572Z,12.13
2023-03-02T10:04:55.374Z,12.80
2023-03-02T10:07:33.142Z,11.82
2023-03-02T10:10:25.969Z,12.80
2023-03-02T10:13:17.815Z,12.38
2023-03-02T10:15:56.601Z,12.48
2023-03-02T10:18:34.260Z,12.38
2023-03-02T10:21:03.864Z,13.23
2023-03-02T10:23:48.234Z,12.40
2023-03-02T10:26:21.708Z,11.77
2023-03-02T10:28:51.996Z,12.65
2023-03-02T10:31:26.357Z,12.15
2023-03-02T10:33:53.155Z,11.63
2023-03-02T10:36:28.499Z,10.95
2023-03-02T10:38:56.441Z,11.75
2023-03-02T10:41:39.979Z,11.65
2023-03-02T10:44:15.306Z,11.50
2023-03-02T10:46:43.961Z,10.85
2023-03-02T10:49:26.230Z,10.75
2023-03-02T10:51:58.439Z,11.35
2023-03-02T10:54:26.143Z,10.73
2023-03-02T10:56:54.344Z,10.40
2023-03-02T10:59:30.334Z,10.57
2023-03-02T11:02:02.453Z,10.55
2023-03-02T11:04:30.575Z,10.90
2023-03-02T11:07:13.078Z,10.57
2023-03-02T11:09:39.795Z,10.73
2023-03-02T11:12:14.179Z,10.90
2023-03-02T11:14:40.846Z,10.40
2023-03-02T11:17:39.880Z,10.40
2023-03-02T11:20:15.231Z,10.23
2023-03-02T11:22:50.047Z,10.02
2023-03-02T11:27:49.572Z,9.88
2023-03-02T11:30:19.537Z,10.00
2023-03-02T11:33:10.570Z,9.68
2023-03-02T11:35:43.673Z,9.02
2023-03-02T11:38:19.425Z,9.38
2023-03-02T11:40:53.869Z,9.55
2023-03-02T11:43:20.524Z,9.65
2023-03-02T11:45:57.638Z,9.32
2023-03-02T11:48:30.695Z,9.98
2023-03-02T11:51:04.878Z,9.50
2023-03-02T11:53:43.927Z,9.32
2023-03-02T11:56:10.660Z,9.55
2023-03-02T11:58:38.653Z,9.65
2023-03-02T12:01:07.519Z,9.68
2023-03-02T12:03:34.031Z,9.07
2023-03-02T12:06:08.010Z,8.57
2023-03-02T12:08:38.433Z,8.85
2023-03-02T12:11:08.831Z,8.90
2023-03-02T12:13:40.114Z,9.43
2023-03-02T12:16:35.822Z,8.30
2023-03-02T12:19:17.949Z,8.57
2023-03-02T12:22:05.624Z,8.57
2023-03-02T12:24:37.180Z,8.90
2023-03-02T12:27:25.686Z,8.15
2023-03-02T12:30:23.459Z,8.60
2023-03-02T12:33:22.436Z,8.15
2023-03-02T12:35:50.872Z,8.38
2023-03-02T12:38:26.189Z,8.50
2023-03-02T12:41:20.942Z,8.48
2023-03-02T12:43:58.684Z,8.50
2023-03-02T12:46:36.900Z,9.00
2023-03-02T12:49:27.745Z,8.98
2023-03-02T12:51:55.797Z,8.40
2023-03-02T12:54:27.988Z,8.52
2023-03-02T12:57:19.344Z,8.95
2023-03-02T12:59:54.833Z,8.70
2023-03-02T13:02:48.704Z,8.50
2023-03-02T13:05:21.327Z,8.70
2023-03-02T13:07:57.241Z,8.18
2023-03-02T13:10:40.245Z,8.80
2023-03-02T13:13:17.258Z,8.45
2023-03-02T13:15:49.121Z,8.80
2023-03-02T13:18:16.552Z,8.10
2023-03-02T13:20:43.167Z,8.40
2023-03-02T13:23:14.078Z,8.27
2023-03-02T13:26:07.157Z,7.63
2023-03-02T13:28:36.424Z,8.10
2023-03-02T13:31:04.886Z,8.32
2023-03-02T13:33:33.945Z,7.63
2023-03-02T13:36:00.563Z,7.60
2023-03-02T13:38:31.581Z,7.88
2023-03-02T13:40:58.311Z,8.25
2023-03-02T13:43:39.457Z,8.00
2023-03-02T13:46:25.867Z,7.88
2023-03-02T13:49:09.819Z,8.25
2023-03-02T13:51:43.860Z,7.80
2023-03-02T13:54:36.912Z,7.50
2023-03-02T13:57:04.868Z,8.20
2023-03-02T13:59:32.179Z,8.00
2023-03-02T14:01:58.976Z,7.40
2023-03-02T14:04:25.763Z,7.63
2023-03-02T14:06:53.987Z,7.25
2023-03-02T14:09:20.760Z,7.35
2023-03-02T14:11:50.036Z,7.28
2023-03-02T14:14:22.641Z,7.63
2023-03-02T14:16:49.384Z,7.35
2023-03-02T14:19:18.867Z,7.18
2023-03-02T14:21:46.698Z,7.03
2023-03-02T14:24:13.782Z,6.88
2023-03-02T14:26:45.191Z,7.32
2023-03-02T14:29:12.058Z,7.18
2023-03-02T14:31:38.638Z,6.60
2023-03-02T14:34:05.336Z,7.10
2023-03-02T14:36:33.758Z,6.60
2023-03-02T14:39:03.441Z,6.47
2023-03-02T14:41:30.674Z,6.40
2023-03-02T14:43:57.269Z,7.03
2023-03-02T14:46:23.907Z,6.55
2023-03-02T14:48:50.482Z,6.53
2023-03-02T14:51:26.944Z,6.63
2023-03-02T14:53:55.820Z,6.38
2023-03-02T14:56:25.377Z,6.97
2023-03-02T14:58:52.740Z,6.53
2023-03-02T15:01:20.317Z,6.07
2023-03-02T15:03:47.221Z,7.05
2023-03-02T15:06:25.873Z,6.80
2023-03-02T15:08:53.414Z,6.85
2023-03-02T15:11:20.146Z,7.00
2023-03-02T15:13:46.792Z,6.70
2023-03-02T15:16:13.493Z,6.30
2023-03-02T15:18:40.467Z,7.13
2023-03-02T15:21:07.564Z,6.38
2023-03-02T15:23:34.165Z,6.03
2023-03-02T15:26:01.427Z,6.07
2023-03-02T15:28:28.192Z,6.60
2023-03-02T15:30:56.161Z,6.35
2023-03-02T15:33:22.845Z,6.22
2023-03-02T15:35:55.424Z,6.13
2023-03-02T15:38:22.404Z,6.03
2023-03-02T15:40:48.966Z,6.10
2023-03-02T15:43:15.638Z,6.40
2023-03-02T15:45:46.367Z,6.18
2023-03-02T15:48:13.764Z,5.90
2023-03-02T15:50:40.561Z,5.80
2023-03-02T15:53:07.380Z,6.03
2023-03-02T15:55:34.025Z,6.03
2023-03-02T15:58:00.597Z,6.10
2023-03-02T16:00:27.335Z,5.75
2023-03-02T16:02:54.001Z,6.28
2023-03-02T16:05:20.690Z,6.07
2023-03-02T16:07:47.295Z,5.72
2023-03-02T16:10:16.437Z,6.07
2023-03-02T16:12:43.495Z,5.88
2023-03-02T16:15:10.614Z,6.03
2023-03-02T16:17:37.211Z,7.13
2023-03-02T16:20:04.043Z,5.93
2023-03-02T16:22:30.671Z,6.20
2023-03-02T16:24:57.232Z,6.95
2023-03-02T16:27:23.794Z,6.22
2023-03-02T16:29:50.532Z,6.25
2023-03-02T16:32:17.180Z,6.95
2023-03-02T16:34:43.805Z,6.60
2023-03-02T16:37:10.461Z,6.75
2023-03-02T16:39:37.174Z,6.63
2023-03-02T16:42:04.299Z,7.03
2023-03-02T16:44:30.968Z,6.85
2023-03-02T16:46:57.773Z,6.90
2023-03-02T16:49:24.389Z,6.90
2023-03-02T16:51:56.614Z,6.75
2023-03-02T16:54:23.217Z,6.70
2023-03-02T16:56:49.818Z,6.85
2023-03-02T16:59:16.624Z,6.72
2023-03-02T17:01:43.510Z,7.82
2023-03-02T17:04:10.275Z,10.10
2023-03-02T17:06:36.901Z,8.13
2023-03-02T17:09:03.750Z,7.05
2023-03-02T17:11:31.824Z,7.00
2023-03-02T17:13:58.424Z,5.75
2023-03-02T17:16:25.020Z,5.80
2023-03-02T17:18:51.577Z,5.53
2023-03-02T17:21:18.220Z,5.45
2023-03-02T17:23:47.911Z,5.80
2023-03-02T17:26:15.893Z,5.47
2023-03-02T17:28:42.529Z,5.72
2023-03-02T17:31:09.137Z,5.55
2023-03-02T17:33:37.740Z,5.82
2023-03-02T17:36:09.761Z,5.75
2023-03-02T17:38:36.444Z,5.30
2023-03-02T17:41:07.993Z,5.50
2023-03-02T17:43:36.739Z,5.88
2023-03-02T17:46:13.889Z,5.35
2023-03-02T17:48:41.793Z,5.75
2023-03-02T17:51:08.538Z,7.32
2023-03-02T17:53:35.110Z,5.97
2023-03-02T17:56:01.718Z,5.90
2023-03-02T17:58:33.194Z,6.18
2023-03-02T18:01:09.567Z,5.93
2023-03-02T18:03:36.394Z,5.63
2023-03-02T18:06:03.760Z,5.95
2023-03-02T18:08:30.429Z,5.85
2023-03-02T18:11:00.390Z,5.70
2023-03-02T18:13:27.119Z,5.53
2023-03-02T18:15:53.721Z,5.78
2023-03-02T18:18:20.301Z,5.85
2023-03-02T18:20:46.903Z,5.60
2023-03-02T18:23:13.660Z,5.40
2023-03-02T18:25:40.347Z,5.97
2023-03-02T18:28:06.980Z,5.60
2023-03-02T18:30:33.676Z,5.38
2023-03-02T18:33:01.292Z,5.22
2023-03-02T18:35:27.912Z,5.88
2023-03-02T18:37:54.505Z,5.55
2023-03-02T18:40:21.346Z,5.75
2023-03-02T18:42:48.401Z,5.70
2023-03-02T18:45:21.698Z,5.50
2023-03-02T18:47:48.401Z,5.57
2023-03-02T18:50:15.316Z,5.45
2023-03-02T18:52:41.897Z,5.82
2023-03-02T18:55:09.025Z,5.47
2023-03-02T18:57:38.072Z,5.60
2023-03-02T19:00:07.287Z,5.95
2023-03-02T19:02:34.105Z,6.15
2023-03-02T19:05:01.381Z,6.07
2023-03-02T19:07:28.045Z,5.78
2023-03-02T19:09:54.624Z,6.18
2023-03-02T19:12:21.163Z,6.15
2023-03-02T19:14:47.736Z,5.57
2023-03-02T19:17:14.347Z,7.13
2023-03-02T19:19:43.463Z,9.13
2023-03-02T19:22:10.257Z,6.55
2023-03-02T19:24:36.902Z,6.22
2023-03-02T19:27:03.729Z,6.70
2023-03-02T19:29:30.318Z,6.22
2023-03-02T19:31:56.967Z,6.03
2023-03-02T19:34:23.907Z,6.30
2023-03-02T19:36:50.612Z,5.85
2023-03-02T19:39:17.226Z,6.03
2023-03-02T19:41:43.774Z,6.65
2023-03-02T19:44:12.190Z,6.82
2023-03-02T19:46:39.612Z,6.60
2023-03-02T19:49:06.270Z,6.68
2023-03-02T19:51:32.924Z,6.63
2023-03-02T19:54:00.446Z,6.45
2023-03-02T19:56:32.702Z,6.97
2023-03-02T19:59:00.338Z,6.50
2023-03-02T20:01:29.616Z,5.95
2023-03-02T20:03:57.975Z,6.53
2023-03-02T20:06:30.668Z,6.28
2023-03-02T20:08:59.031Z,6.25
2023-03-02T20:11:25.633Z,5.90
2023-03-02T20:13:52.753Z,5.65
2023-03-02T20:16:22.765Z,6.20
2023-03-02T20:18:51.359Z,5.97
2023-03-02T20:21:18.705Z,5.88
2023-03-02T20:23:49.965Z,5.18
2023-03-02T20:26:16.611Z,5.72
2023-03-02T20:28:43.535Z,5.90
2023-03-02T20:31:11.937Z,5.85
2023-03-02T20:33:46.365Z,6.00
2023-03-02T20:36:15.077Z,5.53
2023-03-02T20:38:45.821Z,6.20
2023-03-02T20:41:13.292Z,5.60
2023-03-02T20:43:41.060Z,6.30
2023-03-02T20:46:09.355Z,6.47
2023-03-02T20:48:36.229Z,6.18
2023-03-02T20:51:03.363Z,6.03
2023-03-02T20:53:30.285Z,6.07
2023-03-02T20:55:57.975Z,5.90
2023-03-02T20:58:24.656Z,6.25
2023-03-02T21:00:51.426Z,5.93
2023-03-02T21:03:18.054Z,5.78
2023-03-02T21:05:45.409Z,6.03
2023-03-02T21:08:14.961Z,5.85
2023-03-02T21:10:42.955Z,6.35
2023-03-02T21:13:10.598Z,5.93
2023-03-02T21:15:37.906Z,6.30
2023-03-02T21:18:04.739Z,5.80
2023-03-02T21:20:33.775Z,5.70
2023-03-02T21:23:00.567Z,6.03
2023-03-02T21:25:28.255Z,6.03
2023-03-02T21:27:56.173Z,6.20
2023-03-02T21:30:30.984Z,5.88
2023-03-02T21:32:57.664Z,5.75
2023-03-02T21:35:24.493Z,5.95
2023-03-02T21:37:55.287Z,5.82
2023-03-02T21:40:26.261Z,5.82
2023-03-02T21:42:53.600Z,6.30
2023-03-02T21:45:20.555Z,5.80
2023-03-02T21:47:47.370Z,6.40
2023-03-02T21:50:17.099Z,6.63
2023-03-02T21:52:43.705Z,6.57
2023-03-02T21:55:11.558Z,7.32
2023-03-02T21:57:38.177Z,7.03
2023-03-02T22:00:06.126Z,7.72
2023-03-02T22:02:32.864Z,8.40
2023-03-02T22:04:59.479Z,8.27
2023-03-02T22:07:26.054Z,8.30
2023-03-02T22:09:52.759Z,7.53
2023-03-02T22:12:22.351Z,7.25
2023-03-02T22:14:49.094Z,7.80
2023-03-02T22:17:18.550Z,7.72
2023-03-02T22:19:45.443Z,8.18
2023-03-02T22:22:32.216Z,7.60
2023-03-02T22:24:58.848Z,8.07
2023-03-02T22:27:28.090Z,8.23
2023-03-02T22:29:57.930Z,8.10
2023-03-02T22:32:34.582Z,8.60
2023-03-02T22:35:08.402Z,7.70
2023-03-02T22:37:35.160Z,7.80
2023-03-02T22:40:11.874Z,8.15
2023-03-02T22:42:38.708Z,7.80
2023-03-02T22:45:14.620Z,8.07
2023-03-02T22:47:43.164Z,8.15
2023-03-02T22:50:27.640Z,8.30
2023-03-02T22:52:55.562Z,8.53
2023-03-02T22:55:34.219Z,8.10
2023-03-02T22:58:38.584Z,8.38
2023-03-02T23:01:17.272Z,8.15
2023-03-02T23:03:46.427Z,8.40
2023-03-02T23:06:17.264Z,8.45
2023-03-02T23:08:43.862Z,8.20
2023-03-02T23:11:15.808Z,8.27
2023-03-02T23:13:42.408Z,7.90
2023-03-02T23:16:19.927Z,7.55
2023-03-02T23:18:50.514Z,8.18
2023-03-02T23:21:20.436Z,8.55
2023-03-02T23:23:48.193Z,8.40
2023-03-02T23:26:15.306Z,8.40
2023-03-02T23:28:41.900Z,8.38
2023-03-02T23:31:08.641Z,8.02
2023-03-02T23:33:35.291Z,8.43
2023-03-02T23:36:02.162Z,7.82
2023-03-02T23:38:28.780Z,8.13
2023-03-02T23:40:55.392Z,8.02
2023-03-02T23:43:22.160Z,7.95
2023-03-02T23:45:48.837Z,8.07
2023-03-02T23:48:16.524Z,7.90
2023-03-02T23:50:44.870Z,8.50
2023-03-02T23:53:11.973Z,8.80
2023-03-02T23:55:41.654Z,8.10
2023-03-02T23:58:08.258Z,8.07
